Triplett, North Carolina
Current Conditions -  °F | °C
As of 8:55 AM on Thursday 23 Oct 2014 (Local Time) from KTNB Reporting Station
Clear Clear  
Wind Chill: 33°   Ceiling: Unl
Heat Index: 41°   Visibility: 10mi
Dew Point: 33°   Wind: 13mph
Humidity: 74%   Direction: 290°WNW
Pressure: 30.14"   Gusts: 22mph
Location:  36.1935°N, 81.5276°W
Report Text: KTNB 231255Z AUTO 29011G19KT 10SM CLR 05/01 A3014 RMK AO2 T00480005
Loading
Personal Weather Stations






























Interactive Weather Map
Tropical Storm Tracking
New forecast layout! Learn more

10-Day Weather Forecast

Advertisements
Track Severe Weather on mobile